createdAt,value
2022-08-19T00:02:03.635Z,98.70
2022-08-19T00:04:35.916Z,98.90
2022-08-19T00:07:05.617Z,99.10
2022-08-19T00:09:32.862Z,99.80
2022-08-19T00:12:00.737Z,99.90
2022-08-19T00:14:28.726Z,99.90
2022-08-19T00:16:55.834Z,99.90
2022-08-19T00:19:23.771Z,99.90
2022-08-19T00:21:50.906Z,99.90
2022-08-19T00:24:17.941Z,99.90
2022-08-19T00:26:46.292Z,99.90
2022-08-19T00:29:15.320Z,99.60
2022-08-19T00:31:43.745Z,99.50
2022-08-19T00:34:13.008Z,99.10
2022-08-19T00:36:43.010Z,99.50
2022-08-19T00:39:10.587Z,99.40
2022-08-19T00:41:37.919Z,99.20
2022-08-19T00:44:08.915Z,99.50
2022-08-19T00:46:38.984Z,99.80
2022-08-19T00:49:30.183Z,99.50
2022-08-19T00:52:02.627Z,98.50
2022-08-19T00:54:30.981Z,98.50
2022-08-19T00:57:00.607Z,97.70
2022-08-19T00:59:56.525Z,97.40
2022-08-19T01:02:17.754Z,97.00
2022-08-19T01:04:44.724Z,97.60
2022-08-19T01:07:15.175Z,99.10
2022-08-19T01:09:47.050Z,99.70
2022-08-19T01:12:14.516Z,99.90
2022-08-19T01:14:42.135Z,99.90
2022-08-19T01:17:12.189Z,99.90
2022-08-19T01:19:43.402Z,99.90
2022-08-19T01:22:40.691Z,98.50
2022-08-19T01:25:14.789Z,99.90
2022-08-19T01:27:44.798Z,99.10
2022-08-19T01:30:20.325Z,99.70
2022-08-19T01:32:47.283Z,99.90
2022-08-19T01:35:14.913Z,99.90
2022-08-19T01:37:50.901Z,99.90
2022-08-19T01:40:20.315Z,99.90
2022-08-19T01:42:49.980Z,99.90
2022-08-19T01:45:18.769Z,99.90
2022-08-19T01:47:52.720Z,99.90
2022-08-19T01:50:29.362Z,99.90
2022-08-19T01:53:06.210Z,99.90
2022-08-19T01:55:40.924Z,99.90
2022-08-19T01:58:15.504Z,99.90
2022-08-19T02:00:42.803Z,99.90
2022-08-19T02:03:11.018Z,99.90
2022-08-19T02:05:38.721Z,99.90
2022-08-19T02:08:05.945Z,99.90
2022-08-19T02:10:33.126Z,99.90
2022-08-19T02:13:00.311Z,99.90
2022-08-19T02:15:27.254Z,99.90
2022-08-19T02:17:54.113Z,99.90
2022-08-19T02:20:21.040Z,99.90
2022-08-19T02:22:47.971Z,99.90
2022-08-19T02:25:15.829Z,99.90
2022-08-19T02:27:43.994Z,99.90
2022-08-19T02:30:14.605Z,99.90
2022-08-19T02:32:44.681Z,99.90
2022-08-19T02:35:21.753Z,99.90
2022-08-19T02:38:07.837Z,99.90
2022-08-19T02:40:35.677Z,99.90
2022-08-19T02:43:08.530Z,99.90
2022-08-19T02:45:37.232Z,99.90
2022-08-19T02:48:12.703Z,99.90
2022-08-19T02:50:56.222Z,99.90
2022-08-19T02:53:25.530Z,99.90
2022-08-19T02:55:53.449Z,99.90
2022-08-19T02:58:21.377Z,99.90
2022-08-19T03:00:51.350Z,99.90
2022-08-19T03:03:19.899Z,99.90
2022-08-19T03:05:48.395Z,99.90
2022-08-19T03:08:25.256Z,99.90
2022-08-19T03:10:53.952Z,99.90
2022-08-19T03:13:21.397Z,99.90
2022-08-19T03:15:49.017Z,99.90
2022-08-19T03:18:17.873Z,99.90
2022-08-19T03:20:50.609Z,99.90
2022-08-19T03:23:18.126Z,99.90
2022-08-19T03:25:47.308Z,99.90
2022-08-19T03:28:30.541Z,99.90
2022-08-19T03:31:03.902Z,99.90
2022-08-19T03:33:32.200Z,99.90
2022-08-19T03:36:16.482Z,99.90
2022-08-19T03:38:49.407Z,99.90
2022-08-19T03:41:26.706Z,99.90
2022-08-19T03:44:16.835Z,99.90
2022-08-19T03:46:46.069Z,99.90
2022-08-19T03:49:14.256Z,99.90
2022-08-19T03:51:42.779Z,99.90
2022-08-19T03:54:12.395Z,99.90
2022-08-19T03:56:41.592Z,99.90
2022-08-19T03:59:12.137Z,99.90
2022-08-19T04:01:39.124Z,99.90
2022-08-19T04:04:06.595Z,99.90
2022-08-19T04:06:36.184Z,99.90
2022-08-19T04:09:09.549Z,99.90
2022-08-19T04:11:45.023Z,99.90
2022-08-19T04:14:25.157Z,99.90
2022-08-19T04:16:52.807Z,99.90
2022-08-19T04:19:20.792Z,99.90
2022-08-19T04:21:50.843Z,99.90
2022-08-19T04:24:19.539Z,99.90
2022-08-19T04:26:47.796Z,99.90
2022-08-19T04:29:22.996Z,99.90
2022-08-19T04:31:50.697Z,99.90
2022-08-19T04:34:23.453Z,99.90
2022-08-19T04:36:54.409Z,99.90
2022-08-19T04:39:48.571Z,99.90
2022-08-19T04:42:35.680Z,99.90
2022-08-19T04:45:05.330Z,99.90
2022-08-19T04:47:46.951Z,99.90
2022-08-19T04:50:18.656Z,99.90
2022-08-19T04:52:46.052Z,99.90
2022-08-19T04:55:15.180Z,99.90
2022-08-19T04:57:42.208Z,99.90
2022-08-19T05:00:10.773Z,99.90
2022-08-19T05:02:38.321Z,99.90
2022-08-19T05:05:07.388Z,99.90
2022-08-19T05:07:34.843Z,99.90
2022-08-19T05:10:02.200Z,99.90
2022-08-19T05:12:29.826Z,99.90
2022-08-19T05:14:58.497Z,99.90
2022-08-19T05:17:29.029Z,99.90
2022-08-19T05:20:17.035Z,99.90
2022-08-19T05:22:45.591Z,99.90
2022-08-19T05:25:15.635Z,99.90
2022-08-19T05:27:43.374Z,99.90
2022-08-19T05:30:11.516Z,99.60
2022-08-19T05:32:39.571Z,99.10
2022-08-19T05:35:06.971Z,99.10
2022-08-19T05:37:35.100Z,98.90
2022-08-19T05:40:02.491Z,98.10
2022-08-19T05:42:29.487Z,96.80
2022-08-19T05:44:57.672Z,96.00
2022-08-19T05:47:24.537Z,96.40
2022-08-19T05:49:51.944Z,97.10
2022-08-19T05:52:26.127Z,97.40
2022-08-19T05:54:55.959Z,97.60
2022-08-19T05:57:24.485Z,97.50
2022-08-19T05:59:57.718Z,98.20
2022-08-19T06:02:29.736Z,98.10
2022-08-19T06:04:56.674Z,98.20
2022-08-19T06:07:24.094Z,98.40
2022-08-19T06:10:00.425Z,99.00
2022-08-19T06:12:34.063Z,99.10
2022-08-19T06:15:03.272Z,99.60
2022-08-19T06:17:31.808Z,99.80
2022-08-19T06:20:00.143Z,99.90
2022-08-19T06:22:28.021Z,99.90
2022-08-19T06:24:55.711Z,99.90
2022-08-19T06:27:23.288Z,99.90
2022-08-19T06:29:50.670Z,99.90
2022-08-19T06:32:19.374Z,99.90
2022-08-19T06:34:46.457Z,99.90
2022-08-19T06:37:13.384Z,99.90
2022-08-19T06:39:44.084Z,99.90
2022-08-19T06:42:14.081Z,99.90
2022-08-19T06:44:48.058Z,99.90
2022-08-19T06:47:23.533Z,99.90
2022-08-19T06:50:01.449Z,99.90
2022-08-19T06:52:36.832Z,99.90
2022-08-19T06:55:06.651Z,99.90
2022-08-19T06:57:35.154Z,99.90
2022-08-19T07:00:02.454Z,99.90
2022-08-19T07:02:29.590Z,99.90
2022-08-19T07:04:59.148Z,99.90
2022-08-19T07:07:26.265Z,99.90
2022-08-19T07:09:59.206Z,99.90
2022-08-19T07:12:30.474Z,99.90
2022-08-19T07:14:59.152Z,99.90
2022-08-19T07:17:26.666Z,99.90
2022-08-19T07:19:54.786Z,99.90
2022-08-19T07:22:24.214Z,99.90
2022-08-19T07:24:52.548Z,99.90
2022-08-19T07:27:25.184Z,99.90
2022-08-19T07:29:56.221Z,99.90
2022-08-19T07:32:27.464Z,99.90
2022-08-19T07:34:55.239Z,99.90
2022-08-19T07:37:32.517Z,99.90
2022-08-19T07:40:01.073Z,99.90
2022-08-19T07:42:30.791Z,99.90
2022-08-19T07:44:59.379Z,99.90
2022-08-19T07:47:49.810Z,99.90
2022-08-19T07:50:15.948Z,99.90
2022-08-19T07:52:45.199Z,99.90
2022-08-19T07:55:41.654Z,99.90
2022-08-19T07:58:05.735Z,99.90
2022-08-19T08:00:32.680Z,99.90
2022-08-19T08:02:59.542Z,99.90
2022-08-19T08:05:45.275Z,99.90
2022-08-19T08:08:32.048Z,99.90
2022-08-19T08:10:59.752Z,99.90
2022-08-19T08:13:27.939Z,99.90
2022-08-19T08:15:56.058Z,99.90
2022-08-19T08:18:27.452Z,99.90
2022-08-19T08:20:56.556Z,99.90
2022-08-19T08:23:25.910Z,99.90
2022-08-19T08:25:55.960Z,99.90
2022-08-19T08:28:24.087Z,99.90
2022-08-19T08:30:51.474Z,99.90
2022-08-19T08:33:33.945Z,99.90
2022-08-19T08:36:03.759Z,99.90
2022-08-19T08:38:38.748Z,99.90
2022-08-19T08:41:30.800Z,99.90
2022-08-19T08:43:58.693Z,99.90
2022-08-19T08:46:32.584Z,99.90
2022-08-19T08:49:21.739Z,99.90
2022-08-19T08:52:06.380Z,99.90
2022-08-19T08:54:49.130Z,99.90
2022-08-19T08:57:26.896Z,99.90
2022-08-19T08:59:57.242Z,99.90
2022-08-19T09:02:25.518Z,99.90
2022-08-19T09:04:53.353Z,99.90
2022-08-19T09:07:44.656Z,99.90
2022-08-19T09:10:19.706Z,99.90
2022-08-19T09:13:09.399Z,99.90
2022-08-19T09:15:55.967Z,99.90
2022-08-19T09:18:22.901Z,99.90
2022-08-19T09:20:49.877Z,99.90
2022-08-19T09:23:17.201Z,99.90
2022-08-19T09:25:44.106Z,99.90
2022-08-19T09:28:15.189Z,99.90
2022-08-19T09:30:49.359Z,99.90
2022-08-19T09:33:17.145Z,99.90
2022-08-19T09:35:53.342Z,99.90
2022-08-19T09:38:21.915Z,99.90
2022-08-19T09:40:50.490Z,99.90
2022-08-19T09:43:32.980Z,99.90
2022-08-19T09:46:02.333Z,99.90
2022-08-19T09:48:29.249Z,99.90
2022-08-19T09:50:56.361Z,99.90
2022-08-19T09:53:25.282Z,99.90
2022-08-19T09:55:53.110Z,99.90
2022-08-19T09:58:23.488Z,99.90
2022-08-19T10:00:54.724Z,99.90
2022-08-19T10:03:21.883Z,99.90
2022-08-19T10:05:55.300Z,99.90
2022-08-19T10:08:28.908Z,99.90
2022-08-19T10:10:56.936Z,99.90
2022-08-19T10:13:28.316Z,99.90
2022-08-19T10:15:57.966Z,99.90
2022-08-19T10:18:26.484Z,99.90
2022-08-19T10:21:03.355Z,99.90
2022-08-19T10:23:33.691Z,99.90
2022-08-19T10:26:02.423Z,99.90
2022-08-19T10:28:29.255Z,99.90
2022-08-19T10:30:57.318Z,99.90
2022-08-19T10:33:38.949Z,99.90
2022-08-19T10:36:19.377Z,99.90
2022-08-19T10:38:56.539Z,99.90
2022-08-19T10:41:35.652Z,99.90
2022-08-19T10:44:07.657Z,99.90
2022-08-19T10:46:38.060Z,99.90
2022-08-19T10:49:06.198Z,99.90
2022-08-19T10:51:52.287Z,99.90
2022-08-19T10:54:32.174Z,99.90
2022-08-19T10:57:01.488Z,99.90
2022-08-19T10:59:35.260Z,99.90
2022-08-19T11:02:05.224Z,99.90
2022-08-19T11:04:32.963Z,99.90
2022-08-19T11:06:59.987Z,99.90
2022-08-19T11:09:34.078Z,99.90
2022-08-19T11:12:02.755Z,99.90
2022-08-19T11:14:34.161Z,99.90
2022-08-19T11:17:01.711Z,99.90
2022-08-19T11:19:28.756Z,99.90
2022-08-19T11:21:57.568Z,99.90
2022-08-19T11:24:28.411Z,99.90
2022-08-19T11:27:01.104Z,99.90
2022-08-19T11:29:28.824Z,99.90
2022-08-19T11:31:55.927Z,99.90
2022-08-19T11:34:26.423Z,99.90
2022-08-19T11:36:59.032Z,99.90
2022-08-19T11:39:27.916Z,99.90
2022-08-19T11:41:54.957Z,99.90
2022-08-19T11:44:21.872Z,99.90
2022-08-19T11:46:48.890Z,99.90
2022-08-19T11:49:17.632Z,99.90
2022-08-19T11:51:44.564Z,99.90
2022-08-19T11:54:13.178Z,99.90
2022-08-19T11:56:40.870Z,99.90
2022-08-19T11:59:12.749Z,99.90
2022-08-19T12:01:43.547Z,99.90
2022-08-19T12:04:11.777Z,99.90
2022-08-19T12:06:40.880Z,99.90
2022-08-19T12:09:10.599Z,99.90
2022-08-19T12:11:38.644Z,99.90
2022-08-19T12:14:06.415Z,99.90
2022-08-19T12:16:33.954Z,99.90
2022-08-19T12:19:04.923Z,99.90
2022-08-19T12:21:34.608Z,99.90
2022-08-19T12:24:03.005Z,99.90
2022-08-19T12:26:32.458Z,99.90
2022-08-19T12:29:00.544Z,99.90
2022-08-19T12:31:30.740Z,99.90
2022-08-19T12:33:58.012Z,99.90
2022-08-19T12:36:25.852Z,99.90
2022-08-19T12:38:53.614Z,99.90
2022-08-19T12:41:23.099Z,99.90
2022-08-19T12:43:51.089Z,99.90
2022-08-19T12:46:20.028Z,99.90
2022-08-19T12:48:49.179Z,99.90
2022-08-19T12:51:21.706Z,99.90
2022-08-19T12:53:49.751Z,99.90
2022-08-19T12:56:22.295Z,99.90
2022-08-19T12:58:50.735Z,99.90
2022-08-19T13:01:23.026Z,99.70
2022-08-19T13:03:51.268Z,99.90
2022-08-19T13:06:20.156Z,99.50
2022-08-19T13:08:47.621Z,99.70
2022-08-19T13:11:21.326Z,99.70
2022-08-19T13:13:51.931Z,98.80
2022-08-19T13:16:21.250Z,98.40
2022-08-19T13:18:49.289Z,98.90
2022-08-19T13:21:16.315Z,98.30
2022-08-19T13:23:43.520Z,98.70
2022-08-19T13:26:12.511Z,98.70
2022-08-19T13:28:58.563Z,98.30
2022-08-19T13:31:46.245Z,98.60
2022-08-19T13:34:13.735Z,98.80
2022-08-19T13:36:40.667Z,98.50
2022-08-19T13:39:09.495Z,97.70
2022-08-19T13:41:37.702Z,97.50
2022-08-19T13:44:07.351Z,97.80
2022-08-19T13:46:34.251Z,97.20
2022-08-19T13:49:01.124Z,96.10
2022-08-19T13:51:29.643Z,97.00
2022-08-19T13:53:56.508Z,95.70
2022-08-19T13:56:26.258Z,96.00
2022-08-19T13:58:54.486Z,96.20
2022-08-19T14:01:25.290Z,96.10
2022-08-19T14:03:52.372Z,96.00
2022-08-19T14:06:19.759Z,96.20
2022-08-19T14:08:47.253Z,95.80
2022-08-19T14:11:14.584Z,96.00
2022-08-19T14:13:41.820Z,95.70
2022-08-19T14:16:11.605Z,94.50
2022-08-19T14:18:39.450Z,94.50
2022-08-19T14:21:06.944Z,94.80
2022-08-19T14:23:34.816Z,94.70
2022-08-19T14:26:12.457Z,94.60
2022-08-19T14:28:41.812Z,95.30
2022-08-19T14:31:13.992Z,95.10
2022-08-19T14:33:41.458Z,95.70
2022-08-19T14:36:08.513Z,95.70
2022-08-19T14:38:35.847Z,95.10
2022-08-19T14:41:18.402Z,94.90
2022-08-19T14:43:47.417Z,95.10
2022-08-19T14:46:23.441Z,95.30
2022-08-19T14:48:51.906Z,95.50
2022-08-19T14:51:21.873Z,95.40
2022-08-19T14:53:51.954Z,96.00
2022-08-19T14:56:23.350Z,95.70
2022-08-19T14:58:52.632Z,95.60
2022-08-19T15:01:21.668Z,95.40
2022-08-19T15:03:49.764Z,95.20
2022-08-19T15:06:16.855Z,95.00
2022-08-19T15:08:45.792Z,94.80
2022-08-19T15:11:16.817Z,95.00
2022-08-19T15:13:45.666Z,94.20
2022-08-19T15:16:18.139Z,93.90
2022-08-19T15:18:47.181Z,94.20
2022-08-19T15:21:17.412Z,94.10
2022-08-19T15:23:56.614Z,94.20
2022-08-19T15:26:23.707Z,93.80
2022-08-19T15:28:50.605Z,93.30
2022-08-19T15:31:28.489Z,92.80
2022-08-19T15:33:58.272Z,92.90
2022-08-19T15:36:26.272Z,93.00
2022-08-19T15:38:53.387Z,93.10
2022-08-19T15:41:26.137Z,92.30
2022-08-19T15:44:00.484Z,92.10
2022-08-19T15:46:30.999Z,92.00
2022-08-19T15:49:00.077Z,92.50
2022-08-19T15:51:30.448Z,92.50
2022-08-19T15:53:59.132Z,92.50
2022-08-19T15:56:27.508Z,92.80
2022-08-19T15:59:29.996Z,92.70
2022-08-19T16:02:15.210Z,92.40
2022-08-19T16:05:02.060Z,92.50
2022-08-19T16:07:29.979Z,93.20
2022-08-19T16:09:57.087Z,93.10
2022-08-19T16:12:27.516Z,92.60
2022-08-19T16:14:54.478Z,92.60
2022-08-19T16:17:22.393Z,92.50
2022-08-19T16:19:52.544Z,92.60
2022-08-19T16:22:19.745Z,92.70
2022-08-19T16:24:46.961Z,92.70
2022-08-19T16:27:13.953Z,92.80
2022-08-19T16:29:40.795Z,92.80
2022-08-19T16:32:11.183Z,92.70
2022-08-19T16:34:40.204Z,92.60
2022-08-19T16:37:08.087Z,92.40
2022-08-19T16:39:35.087Z,92.90
2022-08-19T16:42:02.652Z,93.00
2022-08-19T16:44:30.184Z,93.20
2022-08-19T16:46:59.773Z,92.80
2022-08-19T16:49:53.159Z,92.80
2022-08-19T16:52:16.150Z,92.70
2022-08-19T16:54:43.652Z,92.70
2022-08-19T16:57:11.813Z,92.40
2022-08-19T16:59:43.694Z,92.60
2022-08-19T17:02:15.801Z,92.50
2022-08-19T17:04:42.654Z,92.70
2022-08-19T17:07:10.390Z,92.70
2022-08-19T17:09:37.977Z,92.40
2022-08-19T17:12:05.685Z,92.70
2022-08-19T17:14:32.597Z,92.30
2022-08-19T17:16:59.460Z,91.80
2022-08-19T17:19:28.373Z,91.90
2022-08-19T17:21:56.134Z,91.90
2022-08-19T17:24:23.063Z,92.10
2022-08-19T17:26:49.944Z,92.10
2022-08-19T17:29:16.792Z,92.80
2022-08-19T17:31:43.683Z,93.10
2022-08-19T17:34:10.620Z,93.30
2022-08-19T17:36:38.201Z,93.70
2022-08-19T17:39:05.311Z,94.10
2022-08-19T17:41:34.261Z,93.80
2022-08-19T17:44:02.713Z,94.10
2022-08-19T17:46:30.441Z,94.80
2022-08-19T17:48:57.690Z,97.90
2022-08-19T17:51:33.724Z,98.20
2022-08-19T17:54:01.516Z,98.60
2022-08-19T17:56:31.059Z,98.70
2022-08-19T17:59:00.680Z,98.70
2022-08-19T18:01:43.941Z,98.90
2022-08-19T18:04:18.657Z,99.30
2022-08-19T18:06:46.916Z,99.80
2022-08-19T18:09:30.091Z,99.90
2022-08-19T18:12:12.579Z,99.90
2022-08-19T18:14:41.188Z,99.80
2022-08-19T18:17:13.591Z,99.40
2022-08-19T18:19:42.689Z,99.40
2022-08-19T18:22:24.091Z,99.70
2022-08-19T18:24:51.447Z,99.90
2022-08-19T18:27:18.596Z,99.90
2022-08-19T18:29:45.725Z,99.90
2022-08-19T18:32:13.456Z,99.90
2022-08-19T18:34:42.112Z,99.80
2022-08-19T18:37:09.325Z,99.60
2022-08-19T18:39:54.718Z,99.90
2022-08-19T18:42:40.021Z,99.90
2022-08-19T18:45:25.779Z,99.90
2022-08-19T18:48:25.805Z,99.90
2022-08-19T18:50:58.723Z,99.90
2022-08-19T18:53:28.430Z,99.90
2022-08-19T18:55:55.785Z,99.90
2022-08-19T18:58:37.311Z,99.90
2022-08-19T19:01:12.563Z,99.90
2022-08-19T19:04:01.324Z,99.90
2022-08-19T19:06:40.287Z,99.90
2022-08-19T19:09:17.900Z,99.90
2022-08-19T19:11:48.309Z,99.90
2022-08-19T19:14:45.757Z,99.90
2022-08-19T19:17:14.509Z,99.90
2022-08-19T19:19:42.854Z,99.90
2022-08-19T19:22:13.278Z,99.90
2022-08-19T19:24:44.203Z,99.90
2022-08-19T19:27:13.113Z,99.90
2022-08-19T19:29:41.105Z,99.90
2022-08-19T19:32:16.577Z,99.90
2022-08-19T19:34:43.668Z,99.90
2022-08-19T19:37:10.655Z,99.90
2022-08-19T19:39:46.472Z,99.90
2022-08-19T19:42:19.835Z,99.90
2022-08-19T19:44:52.505Z,99.90
2022-08-19T19:47:21.490Z,99.90
2022-08-19T19:50:13.183Z,99.90
2022-08-19T19:52:40.753Z,99.90
2022-08-19T19:55:09.840Z,99.90
2022-08-19T19:57:38.523Z,99.90
2022-08-19T20:00:08.686Z,99.90
2022-08-19T20:02:35.628Z,99.90
2022-08-19T20:05:02.507Z,99.90
2022-08-19T20:07:47.743Z,99.90
2022-08-19T20:10:14.611Z,99.90
2022-08-19T20:12:41.555Z,99.90
2022-08-19T20:15:09.112Z,99.90
2022-08-19T20:17:41.228Z,99.90
2022-08-19T20:20:12.468Z,99.90
2022-08-19T20:22:40.799Z,99.90
2022-08-19T20:25:08.355Z,99.90
2022-08-19T20:27:39.845Z,99.90
2022-08-19T20:30:19.621Z,99.90
2022-08-19T20:32:50.666Z,99.90
2022-08-19T20:35:20.414Z,99.90
2022-08-19T20:37:47.804Z,99.90
2022-08-19T20:40:16.535Z,99.90
2022-08-19T20:42:50.615Z,99.90
2022-08-19T20:45:33.415Z,99.90
2022-08-19T20:48:03.187Z,99.90
2022-08-19T20:50:32.068Z,99.90
2022-08-19T20:52:59.324Z,99.90
2022-08-19T20:55:27.280Z,99.90
2022-08-19T20:57:54.834Z,99.90
2022-08-19T21:00:22.152Z,99.90
2022-08-19T21:02:49.054Z,99.90
2022-08-19T21:05:15.960Z,99.90
2022-08-19T21:07:43.109Z,99.90
2022-08-19T21:10:10.048Z,99.90
2022-08-19T21:12:37.101Z,99.90
2022-08-19T21:15:05.158Z,99.90
2022-08-19T21:17:32.038Z,99.90
2022-08-19T21:19:59.178Z,99.90
2022-08-19T21:22:26.074Z,99.90
2022-08-19T21:24:52.965Z,99.90
2022-08-19T21:27:19.802Z,99.90
2022-08-19T21:29:46.682Z,99.90
2022-08-19T21:32:14.279Z,99.90
2022-08-19T21:34:43.903Z,99.90
2022-08-19T21:37:18.975Z,99.90
2022-08-19T21:39:53.372Z,99.90
2022-08-19T21:42:21.072Z,99.90
2022-08-19T21:44:48.074Z,99.90
2022-08-19T21:47:15.221Z,99.90
2022-08-19T21:49:42.118Z,99.90
2022-08-19T21:52:09.011Z,99.90
2022-08-19T21:54:37.651Z,99.90
2022-08-19T21:57:07.013Z,99.90
2022-08-19T21:59:39.750Z,99.90
2022-08-19T22:02:19.954Z,99.90
2022-08-19T22:04:48.759Z,99.90
2022-08-19T22:07:15.943Z,99.90
2022-08-19T22:09:47.153Z,99.90
2022-08-19T22:12:47.258Z,99.90
2022-08-19T22:15:21.110Z,99.90
2022-08-19T22:17:48.268Z,99.90
2022-08-19T22:20:18.318Z,99.90
2022-08-19T22:22:49.014Z,99.90
2022-08-19T22:25:31.700Z,99.90
2022-08-19T22:28:01.507Z,99.90
2022-08-19T22:30:32.392Z,99.90
2022-08-19T22:33:03.164Z,99.90
2022-08-19T22:35:32.760Z,99.90
2022-08-19T22:38:00.344Z,99.90
2022-08-19T22:40:28.771Z,99.90
2022-08-19T22:43:06.643Z,99.90
2022-08-19T22:45:36.243Z,99.90
2022-08-19T22:48:04.814Z,99.90
2022-08-19T22:50:31.706Z,99.90
2022-08-19T22:53:00.676Z,99.90
2022-08-19T22:55:29.825Z,99.90
2022-08-19T22:57:58.785Z,99.90
2022-08-19T23:00:27.963Z,99.90
2022-08-19T23:02:56.386Z,99.90
2022-08-19T23:05:27.699Z,99.90
2022-08-19T23:07:57.194Z,99.90
2022-08-19T23:10:27.415Z,99.90
2022-08-19T23:12:57.863Z,99.90
2022-08-19T23:15:27.732Z,99.90
2022-08-19T23:17:57.121Z,99.90
2022-08-19T23:20:27.308Z,99.90
2022-08-19T23:22:55.444Z,99.90
2022-08-19T23:25:27.082Z,99.90
2022-08-19T23:28:13.079Z,99.90
2022-08-19T23:30:44.517Z,99.90
2022-08-19T23:33:46.824Z,99.90
2022-08-19T23:36:18.345Z,99.90
2022-08-19T23:38:46.820Z,99.90
2022-08-19T23:41:18.366Z,99.90
2022-08-19T23:43:45.412Z,99.90
2022-08-19T23:46:19.242Z,99.90
2022-08-19T23:48:55.644Z,99.90
2022-08-19T23:51:22.660Z,99.90
2022-08-19T23:53:49.796Z,99.90
2022-08-19T23:56:16.827Z,99.90
2022-08-19T23:58:43.804Z,99.90
